Aviation Digital Data Service (ADDS)

Output produced by METARs form (1759 UTC 20 January 2017)
found at http://aviationweather.gov/adds/metars/
 
KLAX 201725Z 2018/2124 16012KT 5SM -RA BR SCT015 OVC025 
     FM201900 17022G32KT 2SM RA BR VCTS BKN007CB OVC015 
     FM202200 26022G32KT 4SM -SHRA BR VCTS BKN015CB OVC025 
     FM210200 27025G35KT P6SM -SHRA BKN015 OVC025 
     FM211000 28018G28KT P6SM VCSH SCT025 BKN050 
     FM211500 28018G28KT P6SM SCT050 BKN120